Time;durP1;ratioP1;P1;durP2;ratioP2;P2;SDS_P1;SDS_P2;PMS_P1;PMS_P2;Temp;Humidity;BMP_temperature;BMP_pressure;BME280_temperature;BME280_humidity;BME280_pressure;Samples;Min_cycle;Max_cycle;Signal;HPM_P1;HPM_P2
2021/11/11 00:00:15;;;;;;;20.67;9.93;;;;;;;6.62;59.32;102409.97;4972711;28;113967;-68
2021/11/11 00:02:43;;;;;;;18.92;9.00;;;;;;;6.60;59.42;102411.72;4981354;28;123857;-68
2021/11/11 00:05:11;;;;;;;19.55;9.27;;;;;;;6.58;59.25;102397.72;4976702;28;123854;-69
2021/11/11 00:07:39;;;;;;;18.10;9.20;;;;;;;6.56;59.29;102394.22;4981010;28;114939;-68
2021/11/11 00:10:09;;;;;;;16.20;9.13;;;;;;;6.52;59.20;102392.47;4982404;28;114030;-68
2021/11/11 00:12:36;;;;;;;19.00;8.68;;;;;;;6.50;59.24;102399.47;4981533;28;123882;-68
2021/11/11 00:15:06;;;;;;;15.15;8.68;;;;;;;6.50;59.08;102392.47;4977406;28;123747;-68
2021/11/11 00:17:34;;;;;;;15.02;7.88;;;;;;;6.48;59.30;102390.69;4973828;28;114253;-68
2021/11/11 00:20:02;;;;;;;14.63;7.95;;;;;;;6.43;59.07;102386.34;4973203;28;113958;-68
2021/11/11 00:22:29;;;;;;;18.00;8.75;;;;;;;6.39;59.20;102386.38;4984593;28;124088;-68
2021/11/11 00:24:56;;;;;;;17.92;8.52;;;;;;;6.34;58.79;102383.72;4980190;28;123823;-68
2021/11/11 00:27:23;;;;;;;16.90;8.90;;;;;;;6.30;58.90;102376.72;4976923;28;114677;-68
2021/11/11 00:29:51;;;;;;;15.02;8.20;;;;;;;6.27;59.44;102371.47;4961797;28;114187;-69
2021/11/11 00:32:18;;;;;;;16.35;8.52;;;;;;;6.23;59.23;102364.47;4979442;28;123914;-69
2021/11/11 00:34:51;;;;;;;19.55;8.48;;;;;;;6.22;59.22;102368.00;4976546;28;122722;-69
2021/11/11 00:37:22;;;;;;;19.10;9.10;;;;;;;6.21;59.08;102366.22;4979012;28;114203;-69
2021/11/11 00:39:51;;;;;;;15.93;8.55;;;;;;;6.18;59.05;102355.72;4978186;28;113892;-69
2021/11/11 00:42:18;;;;;;;16.65;8.25;;;;;;;6.17;59.04;102367.13;4981354;28;124631;-68
2021/11/11 00:44:48;;;;;;;17.75;8.23;;;;;;;6.15;58.98;102366.25;4973178;28;123212;-68
2021/11/11 00:47:16;;;;;;;18.45;8.43;;;;;;;6.12;58.98;102367.13;4982805;28;113233;-68
2021/11/11 00:49:44;;;;;;;16.40;8.32;;;;;;;6.11;59.23;102364.50;4978716;28;114600;-68
2021/11/11 00:52:12;;;;;;;17.05;8.20;;;;;;;6.08;58.88;102365.38;4972858;28;122904;-68
2021/11/11 00:54:41;;;;;;;14.82;7.82;;;;;;;6.09;59.18;102371.53;4973638;28;124464;-68
2021/11/11 00:57:15;;;;;;;19.00;8.63;;;;;;;6.07;59.25;102357.50;4981419;28;113705;-68
2021/11/11 00:59:43;;;;;;;20.65;8.73;;;;;;;6.06;59.27;102355.72;4965375;28;113754;-68
2021/11/11 01:02:10;;;;;;;16.35;8.60;;;;;;;6.03;59.12;102349.59;4976953;28;124121;-67
2021/11/11 01:04:39;;;;;;;18.75;9.20;;;;;;;6.01;59.40;102354.00;4984247;28;123968;-67
2021/11/11 01:07:08;;;;;;;20.80;9.02;;;;;;;6.00;59.08;102346.97;4974926;28;114271;-67
2021/11/11 01:09:37;;;;;;;15.32;7.50;;;;;;;5.99;59.36;102350.50;4976260;28;113278;-67
2021/11/11 01:12:07;;;;;;;20.77;9.10;;;;;;;6.00;59.33;102356.63;4979832;28;124145;-66
2021/11/11 01:14:35;;;;;;;18.33;8.48;;;;;;;5.97;59.41;102352.25;4972644;28;122652;-67
2021/11/11 01:17:03;;;;;;;14.93;7.80;;;;;;;5.97;59.32;102356.63;4981765;28;114962;-67
2021/11/11 01:19:31;;;;;;;16.98;8.35;;;;;;;5.96;58.89;102361.00;4963190;28;112923;-67
2021/11/11 01:21:59;;;;;;;16.05;7.75;;;;;;;5.94;59.17;102357.47;4976858;28;124185;-67
2021/11/11 01:24:27;;;;;;;16.50;7.93;;;;;;;5.91;59.27;102362.72;4982194;28;123437;-67
2021/11/11 01:26:54;;;;;;;15.82;7.78;;;;;;;5.90;59.31;102371.50;4978926;28;115345;-66
2021/11/11 01:29:22;;;;;;;17.05;8.27;;;;;;;5.88;59.00;102368.00;4971389;28;113856;-66
2021/11/11 01:31:50;;;;;;;16.55;8.55;;;;;;;5.87;59.22;102370.63;4984549;28;124135;-67
2021/11/11 01:34:19;;;;;;;15.93;8.00;;;;;;;5.86;59.25;102377.66;4983406;28;124801;-67
2021/11/11 01:36:46;;;;;;;19.17;8.35;;;;;;;5.84;59.08;102368.91;4969076;28;113535;-67
2021/11/11 01:39:17;;;;;;;15.82;8.35;;;;;;;5.83;59.03;102369.75;4976060;28;114792;-66
2021/11/11 01:41:55;;;;;;;19.35;7.63;;;;;;;5.81;59.27;102366.25;4987205;28;126725;-66
2021/11/11 01:44:22;;;;;;;14.43;8.40;;;;;;;5.79;59.18;102368.00;4978328;28;123553;-67
2021/11/11 01:46:51;;;;;;;17.90;8.15;;;;;;;5.78;59.25;102366.25;4955802;28;113861;-67
2021/11/11 01:49:22;;;;;;;20.73;8.60;;;;;;;5.77;59.32;102360.13;4982079;28;113279;-67
2021/11/11 01:51:50;;;;;;;20.42;8.50;;;;;;;5.76;59.21;102357.47;4974244;28;123250;-67
2021/11/11 01:54:19;;;;;;;18.77;9.02;;;;;;;5.76;59.26;102368.00;4973528;28;122994;-67
2021/11/11 01:56:50;;;;;;;18.10;8.70;;;;;;;5.75;59.11;102361.88;4960963;28;113073;-67
2021/11/11 01:59:23;;;;;;;16.23;8.65;;;;;;;5.75;59.13;102361.00;4976101;28;112881;-67
2021/11/11 02:01:53;;;;;;;17.23;8.52;;;;;;;5.74;59.36;102359.25;4970576;28;123100;-67
2021/11/11 02:04:22;;;;;;;17.33;9.23;;;;;;;5.73;59.13;102360.13;4972184;28;123083;-67
2021/11/11 02:06:54;;;;;;;18.45;8.57;;;;;;;5.71;59.13;102359.22;4980358;28;113412;-67
2021/11/11 02:09:27;;;;;;;18.02;8.35;;;;;;;5.66;59.19;102362.75;4975476;28;113455;-67
2021/11/11 02:12:07;;;;;;;16.17;8.07;;;;;;;5.63;59.38;102357.50;4970044;28;123674;-67
2021/11/11 02:14:35;;;;;;;16.77;8.05;;;;;;;5.63;59.42;102357.50;4978802;28;123143;-67
2021/11/11 02:17:05;;;;;;;15.65;8.05;;;;;;;5.61;59.26;102343.50;4978176;28;113897;-67
2021/11/11 02:19:55;;;;;;;17.90;8.25;;;;;;;5.60;59.40;102346.97;4976743;28;117250;-67
2021/11/11 02:22:23;;;;;;;14.82;8.15;;;;;;;5.60;59.29;102343.50;4971317;28;123186;-68
2021/11/11 02:24:56;;;;;;;17.05;8.98;;;;;;;5.59;59.34;102345.22;4979860;28;122686;-67
2021/11/11 02:27:23;;;;;;;15.38;8.00;;;;;;;5.59;59.38;102345.22;4980686;28;114534;-67
2021/11/11 02:29:53;;;;;;;19.60;8.70;;;;;;;5.58;59.25;102343.47;4973904;28;113099;-67
2021/11/11 02:32:27;;;;;;;18.02;8.57;;;;;;;5.58;59.52;102337.34;4963722;28;122930;-67
2021/11/11 02:34:54;;;;;;;16.67;7.72;;;;;;;5.57;59.56;102335.59;4975475;28;123088;-67
2021/11/11 02:37:27;;;;;;;17.85;7.75;;;;;;;5.56;59.52;102334.72;4972640;28;113462;-68
2021/11/11 02:40:12;;;;;;;17.75;8.80;;;;;;;5.55;59.55;102332.97;4978298;28;114091;-68
2021/11/11 02:42:43;;;;;;;16.00;8.83;;;;;;;5.54;59.49;102336.47;4972383;28;126576;-67
2021/11/11 02:45:20;;;;;;;17.40;8.40;;;;;;;5.54;59.48;102336.47;4973323;28;127604;-69
2021/11/11 02:47:51;;;;;;;18.35;8.30;;;;;;;5.52;59.26;102334.72;4962165;28;113196;-67
2021/11/11 02:50:23;;;;;;;14.10;7.53;;;;;;;5.50;59.23;102333.84;4976675;28;113070;-67
2021/11/11 02:52:52;;;;;;;14.48;6.85;;;;;;;5.47;59.21;102339.97;4961312;28;124269;-67
2021/11/11 02:55:20;;;;;;;15.65;7.80;;;;;;;5.45;59.63;102341.72;4977860;28;122751;-67
2021/11/11 02:57:49;;;;;;;14.32;7.32;;;;;;;5.42;59.44;102346.97;4970629;28;113469;-68
2021/11/11 03:00:23;;;;;;;16.92;8.35;;;;;;;5.41;59.38;102335.59;4974775;28;113731;-67
2021/11/11 03:02:52;;;;;;;15.07;7.93;;;;;;;5.39;59.28;102341.75;4982002;28;124972;-67
2021/11/11 03:05:31;;;;;;;19.17;8.35;;;;;;;5.36;59.40;102336.47;4971502;28;124290;-67
2021/11/11 03:08:03;;;;;;;17.38;8.32;;;;;;;5.32;59.27;102334.72;4978395;28;114253;-67
2021/11/11 03:10:32;;;;;;;15.05;8.15;;;;;;;5.30;59.44;102336.47;4973557;28;115175;-67
2021/11/11 03:13:00;;;;;;;14.90;7.93;;;;;;;5.25;59.28;102337.34;4978471;28;123085;-67
2021/11/11 03:15:32;;;;;;;15.50;8.55;;;;;;;5.23;59.28;102341.69;4979732;28;123649;-68
2021/11/11 03:18:00;;;;;;;20.52;8.98;;;;;;;5.22;59.53;102334.72;4973899;28;113331;-67
2021/11/11 03:20:27;;;;;;;17.50;8.30;;;;;;;5.21;59.54;102338.19;4973825;28;113528;-67
2021/11/11 03:22:55;;;;;;;18.88;8.23;;;;;;;5.19;59.33;102339.94;4965428;28;123083;-70
2021/11/11 03:25:28;;;;;;;16.30;8.23;;;;;;;5.18;59.34;102348.72;4977317;28;121967;-67
2021/11/11 03:27:56;;;;;;;15.27;7.60;;;;;;;5.16;59.40;102336.44;4984155;28;113876;-67
2021/11/11 03:30:28;;;;;;;13.50;7.28;;;;;;;5.15;59.76;102343.44;4974073;28;112816;-67
2021/11/11 03:32:56;;;;;;;19.25;8.00;;;;;;;5.15;59.57;102337.31;4974306;28;123901;-67
2021/11/11 03:35:28;;;;;;;16.23;8.02;;;;;;;5.16;59.70;102349.56;4971189;28;123239;-67
2021/11/11 03:37:59;;;;;;;16.48;7.70;;;;;;;5.15;59.70;102348.69;4973981;28;113732;-67
2021/11/11 03:40:30;;;;;;;14.30;7.75;;;;;;;5.17;59.75;102346.94;4969633;28;113880;-67
2021/11/11 03:42:59;;;;;;;15.40;8.95;;;;;;;5.17;59.55;102346.94;4981130;28;122851;-67
2021/11/11 03:45:35;;;;;;;17.83;8.05;;;;;;;5.18;59.81;102348.72;4982150;28;122974;-67
2021/11/11 03:48:03;;;;;;;16.23;8.13;;;;;;;5.19;59.88;102344.31;4963117;28;112365;-67
2021/11/11 03:50:34;;;;;;;13.57;7.72;;;;;;;5.18;59.61;102338.22;4970519;28;114346;-67
2021/11/11 03:53:06;;;;;;;13.35;7.90;;;;;;;5.20;59.64;102331.19;4977988;28;125271;-67
2021/11/11 03:55:34;;;;;;;15.38;7.13;;;;;;;5.21;59.89;102327.69;4983431;28;123496;-67
2021/11/11 03:58:01;;;;;;;15.40;7.97;;;;;;;5.23;59.78;102341.69;4968283;28;114417;-67
2021/11/11 04:00:31;;;;;;;15.23;8.18;;;;;;;5.24;59.81;102345.22;4979940;28;113974;-67
2021/11/11 04:03:02;;;;;;;16.15;8.00;;;;;;;5.24;60.01;102338.22;4979670;28;122403;-67
2021/11/11 04:05:30;;;;;;;21.52;9.40;;;;;;;5.26;59.75;102349.59;4982093;28;123466;-67
2021/11/11 04:07:58;;;;;;;19.60;9.13;;;;;;;5.26;59.25;102346.97;4973334;28;113463;-69
2021/11/11 04:10:27;;;;;;;18.60;8.90;;;;;;;5.25;59.94;102350.47;4983408;28;113172;-67
2021/11/11 04:13:11;;;;;;;22.13;9.48;;;;;;;5.28;60.06;102348.72;4979282;28;123091;-67
2021/11/11 04:15:40;;;;;;;20.65;9.25;;;;;;;5.31;60.04;102348.72;4985581;28;123488;-68
2021/11/11 04:18:07;;;;;;;19.27;9.25;;;;;;;5.32;60.19;102334.72;4965782;28;113561;-67
2021/11/11 04:20:35;;;;;;;21.17;9.43;;;;;;;5.34;60.24;102338.22;4977275;28;113369;-67
2021/11/11 04:23:02;;;;;;;16.13;9.50;;;;;;;5.37;60.32;102332.94;4985712;28;124254;-67
2021/11/11 04:25:39;;;;;;;21.73;9.38;;;;;;;5.40;59.98;102332.97;4961990;28;123078;-67
2021/11/11 04:28:12;;;;;;;19.27;9.32;;;;;;;5.43;60.03;102332.97;4979997;28;113748;-67
2021/11/11 04:30:40;;;;;;;18.40;8.40;;;;;;;5.44;60.41;102324.19;4975731;28;114024;-67
2021/11/11 04:33:10;;;;;;;19.83;8.88;;;;;;;5.44;59.84;102324.19;4978367;28;123261;-67
2021/11/11 04:35:39;;;;;;;17.27;8.20;;;;;;;5.42;59.76;102326.81;4973525;28;124132;-67
2021/11/11 04:46:12;;;;;;;17.70;8.88;;;;;;;5.39;60.02;102339.09;4983283;28;123000;-67
2021/11/11 04:52:27;;;;;;;20.35;9.55;;;;;;;5.39;60.07;102347.00;4975121;28;114520;-67
2021/11/11 05:05:13;;;;;;;18.77;9.30;;;;;;;5.36;59.82;102352.22;4977001;28;123259;-67
2021/11/11 05:07:40;;;;;;;18.02;8.63;;;;;;;5.36;59.82;102357.47;4976003;28;124476;-67
2021/11/11 05:10:11;;;;;;;16.95;9.13;;;;;;;5.35;59.88;102360.97;4971456;28;113285;-67
2021/11/11 05:12:39;;;;;;;19.15;8.85;;;;;;;5.35;59.84;102363.59;4980242;28;113250;-67
2021/11/11 05:15:06;;;;;;;18.15;9.23;;;;;;;5.34;59.99;102364.50;4971992;28;124451;-67
2021/11/11 05:17:36;;;;;;;19.23;9.07;;;;;;;5.33;59.95;102367.97;4973327;28;123732;-67
2021/11/11 05:20:04;;;;;;;20.63;9.88;;;;;;;5.32;60.09;102363.63;4962988;28;112299;-67
2021/11/11 05:22:31;;;;;;;21.08;10.10;;;;;;;5.33;59.88;102362.72;4980600;28;113126;-67
2021/11/11 05:24:58;;;;;;;22.70;10.95;;;;;;;5.34;60.09;102359.25;4964024;28;123318;-67
2021/11/11 05:27:27;;;;;;;21.50;10.75;;;;;;;5.35;60.11;102367.13;4949241;28;122878;-68
2021/11/11 05:29:56;;;;;;;23.70;11.90;;;;;;;5.38;60.14;102359.22;4976006;28;113323;-67
2021/11/11 05:32:23;;;;;;;25.73;11.68;;;;;;;5.41;60.01;102356.63;4978563;28;113554;-68
2021/11/11 05:34:50;;;;;;;22.88;11.77;;;;;;;5.44;60.38;102360.97;4980426;28;123723;-68
2021/11/11 05:37:21;;;;;;;28.17;12.85;;;;;;;5.48;60.41;102362.72;4979162;28;123798;-68
2021/11/11 05:39:49;;;;;;;25.23;12.95;;;;;;;5.52;60.43;102364.50;4984540;28;114552;-68
2021/11/11 05:42:16;;;;;;;29.40;14.18;;;;;;;5.56;60.25;102363.63;5005821;22;113857;-62
2021/11/11 05:44:46;;;;;;;27.75;13.90;;;;;;;5.60;60.50;102360.13;5061093;27;123636;-62
2021/11/11 05:47:14;;;;;;;28.00;14.15;;;;;;;5.64;60.55;102366.25;5018257;28;123444;-62
2021/11/11 05:49:41;;;;;;;25.13;12.82;;;;;;;5.68;60.43;102359.25;5029678;28;113972;-62
2021/11/11 05:52:10;;;;;;;24.23;12.15;;;;;;;5.73;60.69;102368.03;5011473;28;113388;-62
2021/11/11 05:54:39;;;;;;;30.70;15.05;;;;;;;5.76;60.73;102368.00;5027102;27;123434;-62
2021/11/11 05:57:08;;;;;;;34.38;14.45;;;;;;;5.82;60.44;102375.88;5017001;28;122961;-62
2021/11/11 05:59:39;;;;;;;32.97;16.30;;;;;;;5.85;60.73;102378.50;5014879;27;113483;-62
2021/11/11 06:02:11;;;;;;;36.63;16.88;;;;;;;5.89;60.66;102380.25;5004090;28;114861;-61
2021/11/11 06:04:41;;;;;;;33.17;16.25;;;;;;;5.92;60.66;102380.28;5022696;28;123800;-62
2021/11/11 06:07:11;;;;;;;39.67;16.88;;;;;;;5.96;60.55;102382.03;5030180;28;123102;-62
2021/11/11 06:09:39;;;;;;;32.53;16.27;;;;;;;6.00;60.92;102389.03;5022632;28;113354;-62
2021/11/11 06:12:08;;;;;;;36.10;16.75;;;;;;;6.04;60.51;102384.66;5018968;28;114235;-61
2021/11/11 06:14:36;;;;;;;36.85;18.30;;;;;;;6.08;60.50;102385.53;5018710;27;123074;-62
2021/11/11 06:17:06;;;;;;;39.38;18.38;;;;;;;6.14;60.76;102390.78;5028854;28;124764;-62
2021/11/11 06:19:35;;;;;;;35.17;18.02;;;;;;;6.18;60.94;102382.03;5007335;28;113421;-61
2021/11/11 06:22:04;;;;;;;41.88;18.45;;;;;;;6.22;60.91;102394.28;5017718;28;113542;-62
2021/11/11 06:24:33;;;;;;;33.78;17.42;;;;;;;6.23;60.75;102391.66;5014906;28;123275;-61
2021/11/11 06:27:02;;;;;;;31.10;17.08;;;;;;;6.27;60.73;102392.50;5030751;27;123443;-62
2021/11/11 06:29:31;;;;;;;30.45;16.10;;;;;;;6.29;60.64;102396.03;5028501;27;114463;-62
2021/11/11 06:31:59;;;;;;;34.78;16.40;;;;;;;6.33;60.82;102403.03;5026353;28;114978;-62
2021/11/11 06:34:47;;;;;;;31.85;15.82;;;;;;;6.36;60.88;102408.28;5020365;28;123277;-62
2021/11/11 06:37:14;;;;;;;28.23;15.05;;;;;;;6.39;60.59;102413.53;5023474;28;124613;-62
2021/11/11 06:39:41;;;;;;;33.42;16.88;;;;;;;6.41;60.73;102406.53;5020457;28;114208;-62
2021/11/11 06:42:09;;;;;;;32.70;15.70;;;;;;;6.46;60.69;102413.53;5026369;27;112833;-62
2021/11/11 06:44:36;;;;;;;34.47;16.67;;;;;;;6.51;60.97;102417.03;5017457;28;123996;-62
2021/11/11 06:47:03;;;;;;;35.20;17.17;;;;;;;6.53;61.09;102420.53;5022572;28;123736;-62
2021/11/11 06:49:31;;;;;;;34.65;17.17;;;;;;;6.57;60.64;102427.53;5019669;28;114467;-62
2021/11/11 06:51:59;;;;;;;41.67;17.35;;;;;;;6.58;60.83;102426.66;5018016;28;113904;-62
2021/11/11 06:54:27;;;;;;;35.63;17.50;;;;;;;6.60;60.97;102422.25;5021440;28;123814;-62
2021/11/11 06:56:54;;;;;;;38.28;17.38;;;;;;;6.63;60.76;102428.41;5024398;28;124276;-64
2021/11/11 06:59:21;;;;;;;37.17;17.10;;;;;;;6.67;60.89;102429.28;5010175;28;114005;-62
2021/11/11 07:01:49;;;;;;;35.13;16.92;;;;;;;6.70;60.90;102439.78;5023664;28;113298;-62
2021/11/11 07:04:16;;;;;;;32.65;16.85;;;;;;;6.73;61.17;102426.59;5017304;28;123522;-62
2021/11/11 07:06:43;;;;;;;32.20;16.00;;;;;;;6.76;60.71;102436.25;5017154;28;123011;-62
2021/11/11 07:09:11;;;;;;;37.92;17.92;;;;;;;6.79;61.00;102430.97;5026199;28;114179;-62
2021/11/11 07:11:38;;;;;;;37.63;16.27;;;;;;;6.81;60.98;102431.84;5020934;28;114873;-62
2021/11/11 07:14:05;;;;;;;34.72;17.02;;;;;;;6.82;60.88;102429.22;5020258;28;122831;-62
2021/11/11 07:16:32;;;;;;;30.40;16.77;;;;;;;6.86;60.91;102434.47;5017836;28;123828;-62
2021/11/11 07:18:59;;;;;;;36.20;16.95;;;;;;;6.91;61.11;102427.41;5014730;28;115148;-62
2021/11/11 07:21:26;;;;;;;31.88;16.95;;;;;;;6.95;61.31;102431.78;5023940;28;115025;-62
2021/11/11 07:23:53;;;;;;;32.75;16.60;;;;;;;6.98;60.90;102437.03;5020573;28;124410;-62
2021/11/11 07:26:21;;;;;;;34.35;16.13;;;;;;;7.03;61.18;102432.63;5021396;28;124121;-61
2021/11/11 07:28:48;;;;;;;32.10;16.73;;;;;;;7.07;61.19;102434.38;5019119;28;114456;-62
2021/11/11 07:31:21;;;;;;;37.28;17.55;;;;;;;7.10;61.13;102431.72;5019901;28;113566;-61
2021/11/11 07:33:48;;;;;;;36.33;17.17;;;;;;;7.15;60.99;102429.94;5022205;28;124067;-62
2021/11/11 07:36:15;;;;;;;31.60;15.57;;;;;;;7.19;61.10;102439.56;5018074;28;124023;-63
2021/11/11 07:38:43;;;;;;;37.70;17.05;;;;;;;7.26;61.37;102444.81;5022568;28;114202;-63
2021/11/11 07:41:10;;;;;;;35.53;17.08;;;;;;;7.32;61.51;102435.09;5019719;28;114045;-61
2021/11/11 07:43:39;;;;;;;34.28;16.23;;;;;;;7.38;61.34;102434.19;5022922;28;123011;-62
2021/11/11 07:46:06;;;;;;;34.70;16.67;;;;;;;7.43;61.34;102437.69;5027484;28;124606;-62
2021/11/11 07:48:34;;;;;;;35.20;17.15;;;;;;;7.47;61.23;102436.78;5024972;28;113656;-62
2021/11/11 07:51:04;;;;;;;36.08;17.35;;;;;;;7.53;61.15;102427.94;5015155;28;114236;-63
2021/11/11 07:53:32;;;;;;;35.17;16.75;;;;;;;7.57;61.18;102435.84;5023461;28;124295;-62
2021/11/11 07:55:59;;;;;;;37.67;16.55;;;;;;;7.62;61.02;102432.28;5019817;28;124242;-62
2021/11/11 07:58:26;;;;;;;35.47;17.30;;;;;;;7.66;61.09;102428.75;5017611;28;113196;-62
2021/11/11 08:00:54;;;;;;;34.65;17.33;;;;;;;7.70;61.34;102435.75;5023253;28;114029;-62
2021/11/11 08:03:21;;;;;;;35.30;16.35;;;;;;;7.75;61.08;102439.22;5016493;28;124090;-62
2021/11/11 08:05:49;;;;;;;34.75;15.75;;;;;;;7.79;60.95;102435.69;5020447;28;123688;-62
2021/11/11 08:08:17;;;;;;;33.45;16.17;;;;;;;7.81;61.26;102433.91;5015734;28;115518;-62
2021/11/11 08:10:44;;;;;;;34.75;16.83;;;;;;;7.85;61.12;102435.63;5016941;28;115042;-62
2021/11/11 08:13:11;;;;;;;34.35;16.35;;;;;;;7.89;61.04;102426.81;5024989;28;123944;-62
2021/11/11 08:15:39;;;;;;;35.67;16.25;;;;;;;7.93;61.27;102431.19;5024429;28;124050;-62
2021/11/11 08:18:06;;;;;;;37.60;16.55;;;;;;;7.97;61.51;102430.25;5025038;28;113001;-62
2021/11/11 08:20:34;;;;;;;33.08;16.67;;;;;;;8.02;61.21;102431.97;5029472;28;113339;-62
2021/11/11 08:23:01;;;;;;;32.13;16.52;;;;;;;8.07;61.35;102430.19;5026677;28;123874;-62
2021/11/11 08:25:29;;;;;;;38.05;16.92;;;;;;;8.11;61.17;102437.16;5017630;28;124231;-62
2021/11/11 08:27:56;;;;;;;38.33;17.02;;;;;;;8.15;61.36;102434.47;5016114;28;114139;-62
2021/11/11 08:30:24;;;;;;;33.60;16.75;;;;;;;8.22;61.65;102435.31;5018570;28;114425;-62
2021/11/11 08:32:52;;;;;;;35.65;16.77;;;;;;;8.28;61.35;102439.66;5024770;27;122817;-62
2021/11/11 08:35:21;;;;;;;33.20;16.02;;;;;;;8.34;61.62;102435.19;5021246;28;124043;-62
2021/11/11 08:37:49;;;;;;;32.72;16.35;;;;;;;8.39;61.34;102438.66;5035469;27;114221;-62
2021/11/11 08:40:17;;;;;;;36.83;16.70;;;;;;;8.45;61.54;102436.88;5020409;28;114750;-62
2021/11/11 08:42:48;;;;;;;34.33;16.67;;;;;;;8.52;61.61;102438.56;5021422;28;124266;-62
2021/11/11 08:45:16;;;;;;;30.10;15.80;;;;;;;8.58;61.71;102434.06;5019276;28;123355;-62
2021/11/11 08:47:44;;;;;;;31.25;15.27;;;;;;;8.67;61.47;102438.38;5020035;28;114580;-62
2021/11/11 08:50:12;;;;;;;33.60;16.52;;;;;;;8.74;61.58;102433.94;5019160;27;114361;-62
2021/11/11 08:52:44;;;;;;;35.72;16.95;;;;;;;8.81;61.68;102434.72;5027932;28;123923;-62
2021/11/11 08:55:14;;;;;;;34.65;16.55;;;;;;;8.88;61.72;102431.97;5023977;28;122827;-62
2021/11/11 08:57:42;;;;;;;34.78;17.27;;;;;;;8.95;61.74;102435.44;5017091;28;115578;-62
2021/11/11 09:00:15;;;;;;;34.63;17.45;;;;;;;9.03;61.97;102432.69;5022072;28;115209;-62
2021/11/11 09:02:46;;;;;;;37.17;16.88;;;;;;;9.10;62.03;102427.28;5030792;28;124794;-63
2021/11/11 09:05:16;;;;;;;36.15;17.17;;;;;;;9.19;61.75;102433.34;5019915;28;123924;-63
2021/11/11 09:07:43;;;;;;;35.92;18.48;;;;;;;9.26;62.05;102421.78;5041961;27;114560;-63
2021/11/11 09:10:18;;;;;;;48.25;17.48;;;;;;;9.32;62.01;102432.28;5020289;28;114437;-62
2021/11/11 09:12:48;;;;;;;36.50;16.65;;;;;;;9.37;62.06;102433.09;5029444;28;124405;-63
2021/11/11 09:15:18;;;;;;;38.65;16.90;;;;;;;9.47;62.14;102426.75;5019619;28;124259;-63
2021/11/11 09:17:46;;;;;;;36.95;16.85;;;;;;;9.53;62.13;102431.97;5030775;28;114782;-62
2021/11/11 09:20:14;;;;;;;35.42;17.52;;;;;;;9.61;61.92;102433.63;5027060;28;114656;-62
2021/11/11 09:22:42;;;;;;;35.20;16.65;;;;;;;9.67;61.96;102433.53;5026089;28;124034;-63
2021/11/11 09:25:10;;;;;;;36.00;16.67;;;;;;;9.76;61.80;102443.97;5014141;28;123788;-62
2021/11/11 09:27:39;;;;;;;34.83;16.05;;;;;;;9.84;62.13;102436.78;5025082;28;112202;-63
2021/11/11 09:30:12;;;;;;;35.80;17.13;;;;;;;9.93;62.11;102431.31;5022476;28;114354;-63
2021/11/11 09:32:40;;;;;;;34.08;16.27;;;;;;;10.02;61.98;102434.72;5026090;28;124848;-65
2021/11/11 09:35:08;;;;;;;35.47;16.80;;;;;;;10.10;62.10;102427.53;5018694;28;123878;-63
2021/11/11 09:37:37;;;;;;;37.92;17.38;;;;;;;10.18;62.09;102430.03;5027669;28;114341;-63
2021/11/11 09:40:09;;;;;;;34.60;17.25;;;;;;;10.25;62.20;102427.25;5021526;28;113887;-63
2021/11/11 09:42:40;;;;;;;;;;;;;;;10.32;61.74;102426.28;5022684;28;124055;-63
2021/11/11 09:45:11;;;;;;;34.13;16.35;;;;;;;10.42;61.95;102420.81;5042202;27;123365;-63
2021/11/11 09:47:39;;;;;;;33.70;15.90;;;;;;;10.48;62.07;102426.84;5024842;27;114229;-63
2021/11/11 09:50:09;;;;;;;37.90;16.90;;;;;;;10.56;62.16;102439.94;5021972;28;114996;-63
2021/11/11 09:52:39;;;;;;;37.10;16.50;;;;;;;10.62;61.85;102446.91;5021100;28;124603;-63
2021/11/11 10:00:51;;;;;;;30.95;15.43;;;;;;;10.81;61.76;102437.69;5017420;28;114135;-63
2021/11/11 10:03:19;;;;;;;37.08;16.42;;;;;;;10.87;61.71;102447.31;5011861;28;124758;-64
2021/11/11 10:05:47;;;;;;;34.55;16.58;;;;;;;10.93;61.64;102441.88;5013258;28;124115;-63
2021/11/11 10:08:40;;;;;;;33.58;16.17;;;;;;;10.98;61.66;102429.41;5028580;28;114288;-64
2021/11/11 10:11:12;;;;;;;31.27;16.27;;;;;;;11.05;61.64;102436.28;5018354;27;113967;-64
2021/11/11 10:13:40;;;;;;;33.05;17.45;;;;;;;11.10;61.83;102434.41;5011458;28;124077;-63
2021/11/11 10:16:10;;;;;;;37.53;17.23;;;;;;;11.16;61.75;102444.03;5012142;28;123673;-63
2021/11/11 10:18:42;;;;;;;39.42;17.58;;;;;;;11.21;61.75;102447.44;5021456;28;114229;-63
2021/11/11 10:21:21;;;;;;;35.95;17.92;;;;;;;11.27;61.56;102451.75;5029735;28;114005;-63
2021/11/11 10:23:48;;;;;;;35.55;16.67;;;;;;;11.30;61.65;102452.56;5018813;28;124158;-63
2021/11/11 10:26:40;;;;;;;33.53;17.40;;;;;;;11.35;61.64;102454.22;5031501;28;124045;-64
2021/11/11 10:29:33;;;;;;;33.47;16.90;;;;;;;11.40;61.35;102447.91;5030170;28;114659;-64
2021/11/11 10:32:06;;;;;;;32.25;16.33;;;;;;;11.45;61.47;102451.34;5031342;28;113986;-64
2021/11/11 10:34:46;;;;;;;36.25;17.38;;;;;;;11.48;61.28;102456.56;5022630;28;124173;-64
2021/11/11 10:37:14;;;;;;;36.50;17.60;;;;;;;11.54;60.88;102454.69;5011996;27;122661;-64
2021/11/11 10:39:53;;;;;;;32.50;17.63;;;;;;;11.58;61.05;102456.34;5030600;27;115257;-64
2021/11/11 10:42:23;;;;;;;33.78;18.08;;;;;;;11.63;60.92;102454.47;5024169;27;114963;-64
2021/11/11 10:44:53;;;;;;;36.83;18.05;;;;;;;11.67;60.98;102450.81;5019670;28;124116;-64
2021/11/11 10:47:29;;;;;;;33.42;17.60;;;;;;;11.69;61.01;102454.31;5012470;28;123806;-64
2021/11/11 10:49:57;;;;;;;35.00;17.80;;;;;;;11.74;60.90;102452.44;5018183;28;114347;-64
2021/11/11 10:52:32;;;;;;;38.10;19.25;;;;;;;11.79;61.00;102450.56;4997152;28;113179;-64
2021/11/11 10:55:13;;;;;;;33.63;17.58;;;;;;;11.82;60.88;102442.50;5011415;28;124535;-64
2021/11/11 10:57:47;;;;;;;33.13;17.55;;;;;;;11.86;60.95;102440.63;5008472;28;122761;-64
2021/11/11 11:00:25;;;;;;;38.00;17.67;;;;;;;11.90;60.97;102441.47;5029260;28;114497;-64
2021/11/11 11:02:59;;;;;;;36.78;17.85;;;;;;;11.92;60.82;102434.34;5027982;27;113423;-64
2021/11/11 11:05:49;;;;;;;38.25;17.17;;;;;;;11.95;60.81;102428.97;5011714;28;124073;-64
2021/11/11 11:08:44;;;;;;;36.88;18.30;;;;;;;11.97;60.64;102427.13;5014440;28;123839;-64
2021/11/11 11:11:17;;;;;;;33.35;17.05;;;;;;;12.00;60.64;102421.75;5023974;28;114447;-64
2021/11/11 11:13:49;;;;;;;35.47;17.08;;;;;;;12.02;60.86;102425.25;5021542;28;113245;-64
2021/11/11 11:16:22;;;;;;;34.25;18.20;;;;;;;12.08;60.74;102430.38;5014401;28;123891;-64
2021/11/11 11:18:58;;;;;;;33.53;17.35;;;;;;;12.11;60.72;102435.63;5010822;28;124153;-64
2021/11/11 11:21:29;;;;;;;33.85;17.92;;;;;;;12.16;60.63;102433.69;5023551;28;114592;-64
2021/11/11 11:23:59;;;;;;;33.35;17.25;;;;;;;12.21;60.63;102426.50;5019531;28;113872;-64
2021/11/11 11:26:32;;;;;;;34.45;17.23;;;;;;;12.27;60.65;102420.16;5028530;28;124159;-64
2021/11/11 11:29:20;;;;;;;35.33;17.17;;;;;;;12.33;60.65;102419.09;5028869;28;124189;-64
2021/11/11 11:32:08;;;;;;;36.10;16.85;;;;;;;12.39;60.58;102414.47;5028973;28;115277;-64
2021/11/11 11:34:40;;;;;;;29.25;15.73;;;;;;;12.44;60.33;102409.06;5028999;28;115582;-64
2021/11/11 11:37:24;;;;;;;31.65;16.48;;;;;;;12.48;60.18;102413.38;5014224;28;124039;-64
2021/11/11 11:39:58;;;;;;;31.50;16.92;;;;;;;12.51;60.25;102418.63;5011262;28;124127;-64
2021/11/11 11:42:30;;;;;;;32.22;16.58;;;;;;;12.55;60.26;102411.44;5010144;28;114497;-64
2021/11/11 11:45:01;;;;;;;29.98;15.57;;;;;;;12.61;60.20;102413.91;5017161;28;114384;-64
2021/11/11 11:50:10;;;;;;;28.08;15.52;;;;;;;12.69;59.98;102411.03;5017375;28;123819;-64
2021/11/11 11:52:43;;;;;;;30.83;15.60;;;;;;;12.74;60.15;102419.75;5022363;28;114303;-64
2021/11/11 11:58:05;;;;;;;31.58;16.10;;;;;;;12.82;59.66;102417.72;5025180;28;124126;-64